Lordsburg, NM

11:37 PM MDT on July 21, 2017 (GMT -0600)
Lordsburg

Weather History for KLSB - October, 2012

Change the Weather History Date:

Thursday, October 4, 2012

  Actual Average Record
Temperature  
Mean Temperature 71 °F -  
Max Temperature 89 °F 83 °F 86 °F (2014)
Min Temperature 53 °F 48 °F 42 °F (2014)
Cooling Degree Days 6    
Growing Degree Days 21 (Base 50)    
Moisture  
Dew Point 32 °F    
Average Humidity 24    
Maximum Humidity 44    
Minimum Humidity 13    
Precipitation  
Precipitation 0.00 in - - ()
Sea Level Pressure  
Sea Level Pressure 30.18 in    
Wind  
Wind Speed 4 mph ()    
Max Wind Speed 16 mph    
Max Gust Speed 22 mph    
Visibility 10.0 miles    
Events      
Averages and records for this station are not official NWS values.
T = Trace of Precipitation, MM = Missing Value Source: Averaged Metar Reports

Daily Weather History Graph

Daily Weather History Graph

Search for Another Location

Airport or City:

Trip Planner

Search our weather history database for the weather conditions in past years. The results will help you decide how hot, cold, wet, or windy it might be!

Date:

Astronomy

Oct. 04, 2012 Rise Set
Actual Time 7:11 AM MDT 6:54 PM MDT
Civil Twilight 6:46 AM MDT 7:19 PM MDT
Nautical Twilight 6:17 AM MDT 7:48 PM MDT
Astronomical Twilight 5:48 AM MDT 8:17 PM MDT
Moon 9:44 PM MDT (10/4) 11:20 AM MDT (10/4)
Length of Visible Light 12h 32m
Length of Day
11h 42m
Waning Gibbous, 81% of the Moon is Illuminated
Oct 4
Waning Gibbous
Oct 8
Last Quarter
Oct 15
New
Oct 21
First Quarter
Oct 29
Full

Hourly Weather History & Observations

Time (MDT) Temp. Dew Point Humidity Pressure Visibility Wind Dir Wind Speed Gust Speed Precip Events Conditions
12:15 AM 62.6 °F 30.2 °F 30% 30.16 in 10.0 mi West 4.6 mph - N/A   Clear
12:35 AM 62.6 °F 30.2 °F 30% 30.16 in 10.0 mi WNW 4.6 mph - N/A   Clear
12:55 AM 60.8 °F 30.2 °F 31% 30.17 in 10.0 mi NW 4.6 mph - N/A   Clear
1:15 AM 60.8 °F 30.2 °F 31% 30.17 in 10.0 mi Calm Calm - N/A   Clear
1:35 AM 62.6 °F 30.2 °F 30% 30.17 in 10.0 mi Calm Calm - N/A   Clear
1:55 AM 60.8 °F 30.2 °F 31% 30.18 in 10.0 mi NW 3.5 mph - N/A   Clear
2:15 AM 60.8 °F 30.2 °F 31% 30.18 in 10.0 mi Calm Calm - N/A   Clear
2:35 AM 59.0 °F 30.2 °F 34% 30.18 in 10.0 mi NW 3.5 mph - N/A   Clear
2:55 AM 59.0 °F 32.0 °F 36% 30.18 in 10.0 mi Calm Calm - N/A   Clear
3:15 AM 59.0 °F 30.2 °F 34% 30.18 in 10.0 mi Calm Calm - N/A   Clear
3:35 AM 59.0 °F 32.0 °F 36% 30.18 in 10.0 mi NNW 3.5 mph - N/A   Clear
3:55 AM 55.4 °F 30.2 °F 38% 30.18 in 10.0 mi NW 5.8 mph - N/A   Clear
4:15 AM 59.0 °F 32.0 °F 36% 30.17 in 10.0 mi NW 9.2 mph - N/A   Clear
4:35 AM 60.8 °F 30.2 °F 31% 30.17 in 10.0 mi WNW 9.2 mph - N/A   Clear
4:55 AM 60.8 °F 30.2 °F 31% 30.18 in 10.0 mi East 3.5 mph - N/A   Clear
5:15 AM 53.6 °F 30.2 °F 41% 30.19 in 10.0 mi Calm Calm - N/A   Clear
5:35 AM 53.6 °F 32.0 °F 44% 30.19 in 10.0 mi Calm Calm - N/A   Clear
5:55 AM 53.6 °F 32.0 °F 44% 30.19 in 10.0 mi Calm Calm - N/A   Clear
6:15 AM 55.4 °F 32.0 °F 41% 30.19 in 10.0 mi Calm Calm - N/A   Clear
6:35 AM 53.6 °F 30.2 °F 41% 30.19 in 10.0 mi Calm Calm - N/A   Clear
6:55 AM 57.2 °F 32.0 °F 38% 30.20 in 10.0 mi Calm Calm - N/A   Clear
7:15 AM 57.2 °F 30.2 °F 36% 30.20 in 10.0 mi Calm Calm - N/A   Clear
7:35 AM 57.2 °F 32.0 °F 38% 30.21 in 10.0 mi SW 4.6 mph - N/A   Clear
7:55 AM 60.8 °F 32.0 °F 34% 30.23 in 10.0 mi Calm Calm - N/A   Clear
8:15 AM 62.6 °F 32.0 °F 32% 30.23 in 10.0 mi Calm Calm - N/A   Clear
8:35 AM 66.2 °F 32.0 °F 28% 30.23 in 10.0 mi ENE 3.5 mph - N/A   Clear
8:55 AM 64.4 °F 33.8 °F 32% 30.24 in 10.0 mi Calm Calm - N/A   Clear
9:15 AM 68.0 °F 33.8 °F 28% 30.25 in 10.0 mi Calm Calm - N/A   Clear
9:35 AM 69.8 °F 33.8 °F 27% 30.25 in 10.0 mi ESE 3.5 mph - N/A   Clear
9:55 AM 73.4 °F 33.8 °F 23% 30.25 in 10.0 mi Calm Calm - N/A   Clear
10:15 AM 77.0 °F 33.8 °F 21% 30.25 in 10.0 mi Calm Calm - N/A   Clear
10:35 AM 78.8 °F 33.8 °F 20% 30.25 in 10.0 mi Calm Calm - N/A   Clear
10:55 AM 78.8 °F 33.8 °F 20% 30.25 in 10.0 mi South 3.5 mph - N/A   Clear
11:15 AM 80.6 °F 33.8 °F 18% 30.25 in 10.0 mi Calm Calm - N/A   Clear
11:35 AM 82.4 °F 35.6 °F 19% 30.25 in 10.0 mi West 3.5 mph - N/A   Clear
11:55 AM 82.4 °F 35.6 °F 19% 30.24 in 10.0 mi West 8.1 mph - N/A   Clear
12:15 PM 84.2 °F 33.8 °F 16% 30.24 in 10.0 mi West 8.1 mph - N/A   Clear
12:35 PM 86.0 °F 33.8 °F 15% 30.23 in 10.0 mi West 6.9 mph - N/A   Clear
12:55 PM 84.2 °F 32.0 °F 15% 30.23 in 10.0 mi West 8.1 mph - N/A   Clear
1:15 PM 86.0 °F 32.0 °F 14% 30.21 in 10.0 mi West 10.4 mph - N/A   Clear
1:35 PM 87.8 °F 32.0 °F 14% 30.20 in 10.0 mi WNW 11.5 mph 18.4 mph N/A   Clear
1:55 PM 87.8 °F 32.0 °F 14% 30.19 in 10.0 mi West 6.9 mph 16.1 mph N/A   Clear
2:15 PM 87.8 °F 32.0 °F 14% 30.18 in 10.0 mi WSW 12.7 mph 19.6 mph N/A   Clear
2:35 PM 87.8 °F 32.0 °F 14% 30.17 in 10.0 mi WSW 9.2 mph 17.3 mph N/A   Clear
2:55 PM 87.8 °F 32.0 °F 14% 30.16 in 10.0 mi SW 4.6 mph 16.1 mph N/A   Clear
3:15 PM 89.6 °F 32.0 °F 13% 30.16 in 10.0 mi West 9.2 mph - N/A   Clear
3:35 PM 89.6 °F 32.0 °F 13% 30.15 in 10.0 mi WSW 10.4 mph 17.3 mph N/A   Clear
3:55 PM 89.6 °F 32.0 °F 13% 30.14 in 10.0 mi West 13.8 mph - N/A   Clear
4:15 PM 89.6 °F 32.0 °F 13% 30.14 in 10.0 mi West 12.7 mph - N/A   Clear
4:35 PM 89.6 °F 32.0 °F 13% 30.14 in 10.0 mi West 11.5 mph 18.4 mph N/A   Clear
4:55 PM 87.8 °F 32.0 °F 14% 30.14 in 10.0 mi WNW 16.1 mph 19.6 mph N/A   Clear
5:15 PM 89.6 °F 32.0 °F 13% 30.14 in 10.0 mi West 11.5 mph 21.9 mph N/A   Clear
5:35 PM 87.8 °F 30.2 °F 13% 30.13 in 10.0 mi WNW 11.5 mph 16.1 mph N/A   Clear
5:55 PM 87.8 °F 30.2 °F 13% 30.13 in 10.0 mi West 13.8 mph 20.7 mph N/A   Clear
6:15 PM 86.0 °F 32.0 °F 14% 30.13 in 10.0 mi West 12.7 mph - N/A   Clear
6:35 PM 86.0 °F 32.0 °F 14% 30.14 in 10.0 mi WNW 11.5 mph - N/A   Clear
6:55 PM 82.4 °F 32.0 °F 16% 30.13 in 10.0 mi WNW 8.1 mph - N/A   Clear
7:15 PM 80.6 °F 32.0 °F 17% 30.14 in 10.0 mi West 8.1 mph - N/A   Clear
7:35 PM 78.8 °F 32.0 °F 18% 30.14 in 10.0 mi West 5.8 mph - N/A   Clear
7:55 PM 77.0 °F 32.0 °F 19% 30.14 in 10.0 mi West 8.1 mph - N/A   Clear
8:15 PM 75.2 °F 32.0 °F 21% 30.14 in 10.0 mi West 6.9 mph - N/A   Clear
8:35 PM 71.6 °F 32.0 °F 23% 30.14 in 10.0 mi West 8.1 mph - N/A   Clear
8:55 PM 71.6 °F 32.0 °F 23% 30.14 in 10.0 mi West 8.1 mph - N/A   Clear
9:15 PM 73.4 °F 32.0 °F 22% 30.14 in 10.0 mi West 9.2 mph - N/A   Clear
9:35 PM 75.2 °F 32.0 °F 21% 30.15 in 10.0 mi West 8.1 mph - N/A   Clear
9:55 PM 73.4 °F 32.0 °F 22% 30.15 in 10.0 mi West 8.1 mph - N/A   Clear
10:15 PM 73.4 °F 32.0 °F 22% 30.15 in 10.0 mi West 6.9 mph - N/A   Clear
10:35 PM 73.4 °F 32.0 °F 22% 30.16 in 10.0 mi West 8.1 mph - N/A   Clear
10:55 PM 69.8 °F 32.0 °F 25% 30.16 in 10.0 mi West 6.9 mph - N/A   Clear
11:15 PM 71.6 °F 32.0 °F 23% 30.17 in 10.0 mi WSW 9.2 mph - N/A   Clear
11:35 PM 71.6 °F 33.8 °F 25% 30.17 in 10.0 mi West 8.1 mph - N/A   Clear
11:55 PM 71.6 °F 33.8 °F 25% 30.16 in 10.0 mi West 10.4 mph - N/A   Clear